sensor_id;sensor_type;location;lat;lon;timestamp;pressure;altitude;pressure_sealevel;temperature;humidity
34177;BME280;20450;49.074;9.158;2022-12-18T00:00:06;101081.06;;;-7.23;81.59
34177;BME280;20450;49.074;9.158;2022-12-18T00:02:39;101082.09;;;-7.27;81.62
34177;BME280;20450;49.074;9.158;2022-12-18T00:05:07;101083.81;;;-7.46;82.03
34177;BME280;20450;49.074;9.158;2022-12-18T00:07:35;101070.63;;;-7.45;82.18
34177;BME280;20450;49.074;9.158;2022-12-18T00:10:03;101078.19;;;-7.37;82.35
34177;BME280;20450;49.074;9.158;2022-12-18T00:12:31;101074.28;;;-7.29;81.80
34177;BME280;20450;49.074;9.158;2022-12-18T00:14:58;101076.38;;;-7.17;81.10
34177;BME280;20450;49.074;9.158;2022-12-18T00:17:26;101078.03;;;-7.14;80.19
34177;BME280;20450;49.074;9.158;2022-12-18T00:19:53;101081.53;;;-7.15;79.21
34177;BME280;20450;49.074;9.158;2022-12-18T00:22:20;101089.28;;;-7.12;79.78
34177;BME280;20450;49.074;9.158;2022-12-18T00:24:47;101080.44;;;-7.10;79.88
34177;BME280;20450;49.074;9.158;2022-12-18T00:27:14;101087.44;;;-7.10;79.37
34177;BME280;20450;49.074;9.158;2022-12-18T00:29:41;101071.47;;;-7.24;79.78
34177;BME280;20450;49.074;9.158;2022-12-18T00:32:08;101080.19;;;-7.24;80.89
34177;BME280;20450;49.074;9.158;2022-12-18T00:34:36;101078.28;;;-7.20;81.12
34177;BME280;20450;49.074;9.158;2022-12-18T00:37:04;101071.38;;;-7.23;79.89
34177;BME280;20450;49.074;9.158;2022-12-18T00:39:30;101072.06;;;-7.38;81.19
34177;BME280;20450;49.074;9.158;2022-12-18T00:41:58;101081.09;;;-7.63;82.48
34177;BME280;20450;49.074;9.158;2022-12-18T00:44:25;101083.00;;;-7.67;82.95
34177;BME280;20450;49.074;9.158;2022-12-18T00:46:52;101071.13;;;-7.75;83.13
34177;BME280;20450;49.074;9.158;2022-12-18T00:49:20;101075.66;;;-7.79;83.31
34177;BME280;20450;49.074;9.158;2022-12-18T00:51:48;101081.03;;;-7.62;82.41
34177;BME280;20450;49.074;9.158;2022-12-18T00:54:15;101082.72;;;-7.61;81.24
34177;BME280;20450;49.074;9.158;2022-12-18T00:56:43;101085.03;;;-7.53;81.29
34177;BME280;20450;49.074;9.158;2022-12-18T00:59:16;101081.34;;;-7.49;80.82
34177;BME280;20450;49.074;9.158;2022-12-18T01:01:44;101088.31;;;-7.48;80.51
34177;BME280;20450;49.074;9.158;2022-12-18T01:04:12;101091.44;;;-7.40;80.78
34177;BME280;20450;49.074;9.158;2022-12-18T01:06:42;101092.03;;;-7.34;80.26
34177;BME280;20450;49.074;9.158;2022-12-18T01:09:11;101088.75;;;-7.39;79.52
34177;BME280;20450;49.074;9.158;2022-12-18T01:11:38;101093.31;;;-7.44;79.71
34177;BME280;20450;49.074;9.158;2022-12-18T01:14:06;101084.88;;;-7.50;81.40
34177;BME280;20450;49.074;9.158;2022-12-18T01:16:33;101091.13;;;-7.53;81.85
34177;BME280;20450;49.074;9.158;2022-12-18T01:19:00;101098.41;;;-7.59;81.66
34177;BME280;20450;49.074;9.158;2022-12-18T01:21:27;101089.81;;;-7.63;82.17
34177;BME280;20450;49.074;9.158;2022-12-18T01:23:55;101088.91;;;-7.62;81.62
34177;BME280;20450;49.074;9.158;2022-12-18T01:26:25;101098.28;;;-7.56;81.31
34177;BME280;20450;49.074;9.158;2022-12-18T01:28:53;101107.56;;;-7.49;81.55
34177;BME280;20450;49.074;9.158;2022-12-18T01:31:24;101112.00;;;-7.50;81.94
34177;BME280;20450;49.074;9.158;2022-12-18T01:33:54;101108.38;;;-7.47;81.64
34177;BME280;20450;49.074;9.158;2022-12-18T01:36:23;101101.56;;;-7.51;80.98
34177;BME280;20450;49.074;9.158;2022-12-18T01:38:52;101099.53;;;-7.65;80.40
34177;BME280;20450;49.074;9.158;2022-12-18T01:41:22;101102.72;;;-7.78;81.00
34177;BME280;20450;49.074;9.158;2022-12-18T01:43:54;101099.78;;;-7.71;80.91
34177;BME280;20450;49.074;9.158;2022-12-18T01:46:26;101096.09;;;-7.87;81.15
34177;BME280;20450;49.074;9.158;2022-12-18T01:48:57;101102.44;;;-7.92;81.71
34177;BME280;20450;49.074;9.158;2022-12-18T01:51:27;101100.81;;;-7.75;81.28
34177;BME280;20450;49.074;9.158;2022-12-18T01:53:55;101093.28;;;-7.62;80.59
34177;BME280;20450;49.074;9.158;2022-12-18T01:56:23;101098.94;;;-7.51;80.87
34177;BME280;20450;49.074;9.158;2022-12-18T01:58:58;101099.38;;;-7.42;80.52
34177;BME280;20450;49.074;9.158;2022-12-18T02:01:30;101099.09;;;-7.36;79.81
34177;BME280;20450;49.074;9.158;2022-12-18T02:04:19;101091.03;;;-7.31;79.19
34177;BME280;20450;49.074;9.158;2022-12-18T02:06:50;101075.22;;;-7.30;79.05
34177;BME280;20450;49.074;9.158;2022-12-18T02:09:29;101097.41;;;-7.37;79.16
34177;BME280;20450;49.074;9.158;2022-12-18T02:12:06;101116.88;;;-7.42;79.52
34177;BME280;20450;49.074;9.158;2022-12-18T02:14:44;101108.81;;;-7.38;78.72
34177;BME280;20450;49.074;9.158;2022-12-18T02:17:19;101100.03;;;-7.37;78.94
34177;BME280;20450;49.074;9.158;2022-12-18T02:20:01;101103.78;;;-7.62;79.71
34177;BME280;20450;49.074;9.158;2022-12-18T02:22:50;101086.47;;;-7.66;80.26
34177;BME280;20450;49.074;9.158;2022-12-18T02:25:40;101091.97;;;-7.92;80.83
34177;BME280;20450;49.074;9.158;2022-12-18T02:28:32;101097.00;;;-8.08;81.80
34177;BME280;20450;49.074;9.158;2022-12-18T02:31:08;101097.13;;;-7.91;81.61
34177;BME280;20450;49.074;9.158;2022-12-18T02:33:42;101106.38;;;-7.82;81.08
34177;BME280;20450;49.074;9.158;2022-12-18T02:36:12;101100.50;;;-7.67;80.68
34177;BME280;20450;49.074;9.158;2022-12-18T02:38:44;101105.34;;;-7.58;80.35
34177;BME280;20450;49.074;9.158;2022-12-18T02:41:17;101120.94;;;-7.55;79.90
34177;BME280;20450;49.074;9.158;2022-12-18T02:43:55;101126.13;;;-7.54;79.50
34177;BME280;20450;49.074;9.158;2022-12-18T02:46:28;101116.63;;;-7.56;79.76
34177;BME280;20450;49.074;9.158;2022-12-18T02:49:08;101128.50;;;-7.48;80.05
34177;BME280;20450;49.074;9.158;2022-12-18T02:51:50;101130.13;;;-7.45;79.74
34177;BME280;20450;49.074;9.158;2022-12-18T02:54:36;101135.25;;;-7.42;79.14
34177;BME280;20450;49.074;9.158;2022-12-18T02:57:17;101124.38;;;-7.53;79.39
34177;BME280;20450;49.074;9.158;2022-12-18T02:59:57;101118.34;;;-7.55;80.16
34177;BME280;20450;49.074;9.158;2022-12-18T03:02:35;101118.06;;;-7.49;79.63
34177;BME280;20450;49.074;9.158;2022-12-18T03:05:11;101114.06;;;-7.58;80.12
34177;BME280;20450;49.074;9.158;2022-12-18T03:07:49;101121.84;;;-7.96;81.12
34177;BME280;20450;49.074;9.158;2022-12-18T03:10:26;101106.13;;;-7.96;82.14
34177;BME280;20450;49.074;9.158;2022-12-18T03:13:03;101104.19;;;-7.93;81.39
34177;BME280;20450;49.074;9.158;2022-12-18T03:15:38;101104.19;;;-7.93;81.89
34177;BME280;20450;49.074;9.158;2022-12-18T03:18:14;101110.84;;;-7.84;82.70
34177;BME280;20450;49.074;9.158;2022-12-18T03:20:47;101108.47;;;-7.70;81.29
34177;BME280;20450;49.074;9.158;2022-12-18T03:23:24;101114.13;;;-7.59;80.55
34177;BME280;20450;49.074;9.158;2022-12-18T03:25:58;101120.06;;;-7.54;79.79
34177;BME280;20450;49.074;9.158;2022-12-18T03:28:42;101113.03;;;-7.74;79.68
34177;BME280;20450;49.074;9.158;2022-12-18T03:31:14;101119.41;;;-7.81;79.84
34177;BME280;20450;49.074;9.158;2022-12-18T03:33:47;101110.38;;;-7.94;80.28
34177;BME280;20450;49.074;9.158;2022-12-18T03:36:23;101127.38;;;-8.24;81.55
34177;BME280;20450;49.074;9.158;2022-12-18T03:38:52;101124.41;;;-8.37;85.21
34177;BME280;20450;49.074;9.158;2022-12-18T03:41:28;101126.66;;;-8.27;84.83
34177;BME280;20450;49.074;9.158;2022-12-18T03:44:26;101119.50;;;-8.24;85.31
34177;BME280;20450;49.074;9.158;2022-12-18T03:47:05;101121.59;;;-8.32;85.88
34177;BME280;20450;49.074;9.158;2022-12-18T03:49:41;101131.84;;;-8.26;86.73
34177;BME280;20450;49.074;9.158;2022-12-18T03:52:20;101126.06;;;-8.14;85.65
34177;BME280;20450;49.074;9.158;2022-12-18T03:54:56;101118.50;;;-8.00;84.87
34177;BME280;20450;49.074;9.158;2022-12-18T03:57:29;101120.28;;;-8.00;83.35
34177;BME280;20450;49.074;9.158;2022-12-18T04:00:05;101126.41;;;-8.01;84.19
34177;BME280;20450;49.074;9.158;2022-12-18T04:02:54;101120.66;;;-7.89;83.83
34177;BME280;20450;49.074;9.158;2022-12-18T04:05:33;101129.09;;;-7.81;83.28
34177;BME280;20450;49.074;9.158;2022-12-18T04:08:05;101115.16;;;-7.83;83.95
34177;BME280;20450;49.074;9.158;2022-12-18T04:10:36;101115.22;;;-7.85;85.07
34177;BME280;20450;49.074;9.158;2022-12-18T04:13:03;101118.84;;;-7.87;85.75
34177;BME280;20450;49.074;9.158;2022-12-18T04:15:34;101126.03;;;-7.92;86.30
34177;BME280;20450;49.074;9.158;2022-12-18T04:18:06;101133.13;;;-7.94;86.38
34177;BME280;20450;49.074;9.158;2022-12-18T04:20:40;101144.34;;;-7.91;87.00
34177;BME280;20450;49.074;9.158;2022-12-18T04:23:07;101125.91;;;-7.89;86.82
34177;BME280;20450;49.074;9.158;2022-12-18T04:25:36;101116.34;;;-7.90;87.04
34177;BME280;20450;49.074;9.158;2022-12-18T04:28:08;101130.28;;;-7.90;87.45
34177;BME280;20450;49.074;9.158;2022-12-18T04:30:38;101144.81;;;-7.81;87.09
34177;BME280;20450;49.074;9.158;2022-12-18T04:33:09;101133.28;;;-7.77;87.34
34177;BME280;20450;49.074;9.158;2022-12-18T04:35:38;101138.66;;;-7.80;87.11
34177;BME280;20450;49.074;9.158;2022-12-18T04:38:07;101140.00;;;-7.92;87.59
34177;BME280;20450;49.074;9.158;2022-12-18T04:40:34;101144.81;;;-7.81;87.31
34177;BME280;20450;49.074;9.158;2022-12-18T04:43:05;101144.69;;;-7.78;86.66
34177;BME280;20450;49.074;9.158;2022-12-18T04:45:32;101143.31;;;-7.67;86.70
34177;BME280;20450;49.074;9.158;2022-12-18T04:48:01;101130.56;;;-7.54;85.98
34177;BME280;20450;49.074;9.158;2022-12-18T04:50:29;101128.63;;;-7.51;85.56
34177;BME280;20450;49.074;9.158;2022-12-18T04:52:56;101123.31;;;-7.49;85.06
34177;BME280;20450;49.074;9.158;2022-12-18T04:55:24;101121.75;;;-7.53;85.24
34177;BME280;20450;49.074;9.158;2022-12-18T04:57:51;101124.75;;;-7.62;85.94
34177;BME280;20450;49.074;9.158;2022-12-18T05:00:18;101128.69;;;-7.72;86.94
34177;BME280;20450;49.074;9.158;2022-12-18T05:02:45;101129.72;;;-7.76;86.35
34177;BME280;20450;49.074;9.158;2022-12-18T05:05:14;101122.44;;;-7.90;86.55
34177;BME280;20450;49.074;9.158;2022-12-18T05:07:40;101123.03;;;-7.83;86.67
34177;BME280;20450;49.074;9.158;2022-12-18T05:10:08;101118.53;;;-7.80;86.52
34177;BME280;20450;49.074;9.158;2022-12-18T05:12:36;101124.59;;;-7.79;86.11
34177;BME280;20450;49.074;9.158;2022-12-18T05:15:03;101124.84;;;-7.85;86.61
34177;BME280;20450;49.074;9.158;2022-12-18T05:17:31;101130.34;;;-7.91;87.08
34177;BME280;20450;49.074;9.158;2022-12-18T05:19:58;101119.09;;;-7.93;86.35
34177;BME280;20450;49.074;9.158;2022-12-18T05:22:26;101127.09;;;-7.96;86.39
34177;BME280;20450;49.074;9.158;2022-12-18T05:24:53;101137.81;;;-8.02;84.74
34177;BME280;20450;49.074;9.158;2022-12-18T05:27:20;101135.59;;;-7.91;84.96
34177;BME280;20450;49.074;9.158;2022-12-18T05:29:47;101134.56;;;-7.87;83.96
34177;BME280;20450;49.074;9.158;2022-12-18T05:32:14;101135.16;;;-7.81;83.86
34177;BME280;20450;49.074;9.158;2022-12-18T05:34:41;101135.97;;;-7.79;83.52
34177;BME280;20450;49.074;9.158;2022-12-18T05:37:08;101139.31;;;-7.75;83.08
34177;BME280;20450;49.074;9.158;2022-12-18T05:39:36;101146.13;;;-7.71;81.95
34177;BME280;20450;49.074;9.158;2022-12-18T05:42:03;101144.94;;;-7.64;81.50
34177;BME280;20450;49.074;9.158;2022-12-18T05:44:31;101155.97;;;-7.56;81.31
34177;BME280;20450;49.074;9.158;2022-12-18T05:46:58;101146.63;;;-7.62;80.90
34177;BME280;20450;49.074;9.158;2022-12-18T05:49:25;101152.38;;;-7.54;80.71
34177;BME280;20450;49.074;9.158;2022-12-18T05:51:53;101157.63;;;-7.54;80.50
34177;BME280;20450;49.074;9.158;2022-12-18T05:54:19;101154.53;;;-7.63;81.06
34177;BME280;20450;49.074;9.158;2022-12-18T05:56:48;101162.59;;;-7.68;82.15
34177;BME280;20450;49.074;9.158;2022-12-18T05:59:15;101161.75;;;-7.68;83.34
34177;BME280;20450;49.074;9.158;2022-12-18T06:01:41;101147.88;;;-7.92;83.37
34177;BME280;20450;49.074;9.158;2022-12-18T06:04:08;101145.00;;;-8.27;85.61
34177;BME280;20450;49.074;9.158;2022-12-18T06:06:35;101151.56;;;-8.39;85.41
34177;BME280;20450;49.074;9.158;2022-12-18T06:09:03;101152.13;;;-8.53;85.75
34177;BME280;20450;49.074;9.158;2022-12-18T06:11:30;101153.28;;;-8.38;88.56
34177;BME280;20450;49.074;9.158;2022-12-18T06:13:58;101159.69;;;-8.23;88.10
34177;BME280;20450;49.074;9.158;2022-12-18T06:16:27;101159.97;;;-8.09;88.91
34177;BME280;20450;49.074;9.158;2022-12-18T06:18:55;101155.06;;;-7.75;90.68
34177;BME280;20450;49.074;9.158;2022-12-18T06:21:23;101163.19;;;-7.61;89.30
34177;BME280;20450;49.074;9.158;2022-12-18T06:23:50;101156.72;;;-7.53;87.25
34177;BME280;20450;49.074;9.158;2022-12-18T06:26:17;101155.47;;;-7.44;85.35
34177;BME280;20450;49.074;9.158;2022-12-18T06:28:50;101162.16;;;-7.37;85.01
34177;BME280;20450;49.074;9.158;2022-12-18T06:31:18;101152.84;;;-7.44;83.94
34177;BME280;20450;49.074;9.158;2022-12-18T06:33:45;101160.84;;;-7.47;83.52
34177;BME280;20450;49.074;9.158;2022-12-18T06:36:12;101161.72;;;-7.47;83.25
34177;BME280;20450;49.074;9.158;2022-12-18T06:38:41;101158.84;;;-7.42;82.74
34177;BME280;20450;49.074;9.158;2022-12-18T06:41:11;101162.59;;;-7.48;81.80
34177;BME280;20450;49.074;9.158;2022-12-18T06:43:39;101167.84;;;-7.48;81.38
34177;BME280;20450;49.074;9.158;2022-12-18T06:46:08;101150.44;;;-7.70;80.64
34177;BME280;20450;49.074;9.158;2022-12-18T06:48:37;101166.25;;;-7.72;81.61
34177;BME280;20450;49.074;9.158;2022-12-18T06:51:04;101161.69;;;-7.67;81.56
34177;BME280;20450;49.074;9.158;2022-12-18T06:53:32;101169.59;;;-7.68;81.12
34177;BME280;20450;49.074;9.158;2022-12-18T06:56:01;101175.09;;;-7.74;81.40
34177;BME280;20450;49.074;9.158;2022-12-18T06:58:35;101175.53;;;-7.63;81.14
34177;BME280;20450;49.074;9.158;2022-12-18T07:01:04;101178.66;;;-7.55;80.41
34177;BME280;20450;49.074;9.158;2022-12-18T07:03:32;101181.09;;;-7.51;80.47
34177;BME280;20450;49.074;9.158;2022-12-18T07:06:01;101191.47;;;-7.48;79.78
34177;BME280;20450;49.074;9.158;2022-12-18T07:08:28;101188.78;;;-7.46;80.00
34177;BME280;20450;49.074;9.158;2022-12-18T07:10:55;101202.81;;;-7.47;80.07
34177;BME280;20450;49.074;9.158;2022-12-18T07:13:23;101208.09;;;-7.69;82.04
34177;BME280;20450;49.074;9.158;2022-12-18T07:15:50;101211.19;;;-7.59;82.45
34177;BME280;20450;49.074;9.158;2022-12-18T07:18:17;101206.69;;;-7.56;82.55
34177;BME280;20450;49.074;9.158;2022-12-18T07:20:43;101211.94;;;-7.77;81.87
34177;BME280;20450;49.074;9.158;2022-12-18T07:23:13;101206.78;;;-8.00;82.49
34177;BME280;20450;49.074;9.158;2022-12-18T07:25:39;101206.03;;;-7.82;83.50
34177;BME280;20450;49.074;9.158;2022-12-18T07:28:06;101212.19;;;-7.62;83.22
34177;BME280;20450;49.074;9.158;2022-12-18T07:30:40;101218.31;;;-7.41;82.58
34177;BME280;20450;49.074;9.158;2022-12-18T07:33:07;101216.56;;;-7.21;81.04
34177;BME280;20450;49.074;9.158;2022-12-18T07:35:34;101215.44;;;-6.95;81.28
34177;BME280;20450;49.074;9.158;2022-12-18T07:38:01;101222.66;;;-6.62;80.10
34177;BME280;20450;49.074;9.158;2022-12-18T07:40:29;101213.53;;;-6.16;83.20
34177;BME280;20450;49.074;9.158;2022-12-18T07:42:56;101211.84;;;-5.64;81.69
34177;BME280;20450;49.074;9.158;2022-12-18T07:45:23;101211.81;;;-5.29;79.52
34177;BME280;20450;49.074;9.158;2022-12-18T07:47:50;101198.31;;;-5.06;73.83
34177;BME280;20450;49.074;9.158;2022-12-18T07:50:17;101204.75;;;-4.94;76.18
34177;BME280;20450;49.074;9.158;2022-12-18T07:52:44;101209.66;;;-4.71;75.41
34177;BME280;20450;49.074;9.158;2022-12-18T07:55:11;101203.31;;;-4.67;72.85
34177;BME280;20450;49.074;9.158;2022-12-18T07:57:39;101213.25;;;-4.89;72.14
34177;BME280;20450;49.074;9.158;2022-12-18T08:00:17;101218.09;;;-5.31;72.82
34177;BME280;20450;49.074;9.158;2022-12-18T08:02:44;101217.16;;;-5.13;75.34
34177;BME280;20450;49.074;9.158;2022-12-18T08:05:11;101218.25;;;-4.68;73.35
34177;BME280;20450;49.074;9.158;2022-12-18T08:07:38;101217.31;;;-4.34;72.27
34177;BME280;20450;49.074;9.158;2022-12-18T08:10:06;101219.13;;;-4.03;70.96
34177;BME280;20450;49.074;9.158;2022-12-18T08:12:34;101219.25;;;-3.60;68.84
34177;BME280;20450;49.074;9.158;2022-12-18T08:15:03;101207.53;;;-3.25;68.91
34177;BME280;20450;49.074;9.158;2022-12-18T08:17:31;101219.31;;;-2.87;67.87
34177;BME280;20450;49.074;9.158;2022-12-18T08:19:58;101216.53;;;-2.42;65.03
34177;BME280;20450;49.074;9.158;2022-12-18T08:22:25;101217.81;;;-1.92;63.89
34177;BME280;20450;49.074;9.158;2022-12-18T08:24:52;101216.38;;;-1.57;60.93
34177;BME280;20450;49.074;9.158;2022-12-18T08:27:19;101211.16;;;-1.32;60.09
34177;BME280;20450;49.074;9.158;2022-12-18T08:29:54;101213.47;;;-0.89;57.74
34177;BME280;20450;49.074;9.158;2022-12-18T08:32:23;101210.31;;;-0.44;57.21
34177;BME280;20450;49.074;9.158;2022-12-18T08:34:51;101206.44;;;-0.15;56.03
34177;BME280;20450;49.074;9.158;2022-12-18T08:37:17;101206.91;;;0.16;55.67
34177;BME280;20450;49.074;9.158;2022-12-18T08:39:44;101210.72;;;0.48;54.59
34177;BME280;20450;49.074;9.158;2022-12-18T08:42:11;101211.31;;;0.64;54.42
34177;BME280;20450;49.074;9.158;2022-12-18T08:44:38;101207.16;;;0.83;52.39
34177;BME280;20450;49.074;9.158;2022-12-18T08:47:06;101204.97;;;1.23;51.39
34177;BME280;20450;49.074;9.158;2022-12-18T08:49:35;101201.25;;;1.36;50.85
34177;BME280;20450;49.074;9.158;2022-12-18T08:52:02;101201.16;;;1.82;49.93
34177;BME280;20450;49.074;9.158;2022-12-18T08:54:29;101202.97;;;2.03;49.50
34177;BME280;20450;49.074;9.158;2022-12-18T08:56:56;101201.50;;;2.22;48.41
34177;BME280;20450;49.074;9.158;2022-12-18T08:59:23;101193.50;;;2.22;48.02
34177;BME280;20450;49.074;9.158;2022-12-18T09:01:50;101190.47;;;2.26;48.07
34177;BME280;20450;49.074;9.158;2022-12-18T09:04:19;101180.28;;;2.63;46.99
34177;BME280;20450;49.074;9.158;2022-12-18T09:06:49;101169.78;;;3.02;45.98
34177;BME280;20450;49.074;9.158;2022-12-18T09:09:16;101167.16;;;3.32;45.41
34177;BME280;20450;49.074;9.158;2022-12-18T09:11:43;101164.31;;;3.54;44.14
34177;BME280;20450;49.074;9.158;2022-12-18T09:14:10;101167.53;;;3.78;43.57
34177;BME280;20450;49.074;9.158;2022-12-18T09:16:37;101174.25;;;4.13;42.83
34177;BME280;20450;49.074;9.158;2022-12-18T09:19:06;101163.50;;;4.62;42.17
34177;BME280;20450;49.074;9.158;2022-12-18T09:21:34;101157.22;;;4.04;42.87
34177;BME280;20450;49.074;9.158;2022-12-18T09:24:05;101164.19;;;4.35;42.21
34177;BME280;20450;49.074;9.158;2022-12-18T09:26:34;101171.31;;;4.16;42.88
34177;BME280;20450;49.074;9.158;2022-12-18T09:29:02;101174.00;;;3.25;45.29
34177;BME280;20450;49.074;9.158;2022-12-18T09:31:29;101164.44;;;3.02;46.12
34177;BME280;20450;49.074;9.158;2022-12-18T09:33:56;101159.34;;;1.93;48.86
34177;BME280;20450;49.074;9.158;2022-12-18T09:36:23;101158.66;;;1.36;51.23
34177;BME280;20450;49.074;9.158;2022-12-18T09:38:50;101164.00;;;1.69;50.83
34177;BME280;20450;49.074;9.158;2022-12-18T09:41:33;101164.06;;;1.24;51.68
34177;BME280;20450;49.074;9.158;2022-12-18T09:44:14;101166.34;;;0.72;53.67
34177;BME280;20450;49.074;9.158;2022-12-18T09:46:53;101164.41;;;0.16;55.51
34177;BME280;20450;49.074;9.158;2022-12-18T09:49:29;101157.72;;;-0.26;57.57
34177;BME280;20450;49.074;9.158;2022-12-18T09:52:03;101147.66;;;-0.46;58.73
34177;BME280;20450;49.074;9.158;2022-12-18T09:54:38;101151.72;;;-0.53;59.13
34177;BME280;20450;49.074;9.158;2022-12-18T09:57:13;101161.94;;;-0.72;59.78
34177;BME280;20450;49.074;9.158;2022-12-18T09:59:42;101165.84;;;-0.78;60.55
34177;BME280;20450;49.074;9.158;2022-12-18T10:02:15;101176.78;;;-0.70;60.70
34177;BME280;20450;49.074;9.158;2022-12-18T10:04:45;101174.31;;;-0.73;61.53
34177;BME280;20450;49.074;9.158;2022-12-18T10:07:27;101179.31;;;-0.68;61.79
34177;BME280;20450;49.074;9.158;2022-12-18T10:10:11;101166.44;;;-0.37;61.78
34177;BME280;20450;49.074;9.158;2022-12-18T10:12:55;101157.53;;;0.00;60.90
34177;BME280;20450;49.074;9.158;2022-12-18T10:15:34;101163.94;;;-0.02;61.10
34177;BME280;20450;49.074;9.158;2022-12-18T10:18:16;101178.06;;;-0.02;61.23
34177;BME280;20450;49.074;9.158;2022-12-18T10:21:00;101181.09;;;0.18;61.33
34177;BME280;20450;49.074;9.158;2022-12-18T10:23:41;101170.13;;;0.46;60.32
34177;BME280;20450;49.074;9.158;2022-12-18T10:26:18;101177.09;;;1.05;59.27
34177;BME280;20450;49.074;9.158;2022-12-18T10:28:48;101165.66;;;1.92;57.64
34177;BME280;20450;49.074;9.158;2022-12-18T10:31:20;101160.34;;;2.35;56.47
34177;BME280;20450;49.074;9.158;2022-12-18T10:33:50;101159.22;;;4.12;52.05
34177;BME280;20450;49.074;9.158;2022-12-18T10:36:20;101151.34;;;5.34;47.76
34177;BME280;20450;49.074;9.158;2022-12-18T10:38:49;101151.38;;;4.96;47.01
34177;BME280;20450;49.074;9.158;2022-12-18T10:41:26;101161.19;;;4.29;49.11
34177;BME280;20450;49.074;9.158;2022-12-18T10:46:52;101159.25;;;3.81;50.02
34177;BME280;20450;49.074;9.158;2022-12-18T10:49:24;101167.38;;;4.10;50.79
34177;BME280;20450;49.074;9.158;2022-12-18T10:52:05;101158.47;;;4.00;50.61
34177;BME280;20450;49.074;9.158;2022-12-18T10:54:39;101147.03;;;4.76;49.76
34177;BME280;20450;49.074;9.158;2022-12-18T10:57:31;101152.63;;;5.66;47.40
34177;BME280;20450;49.074;9.158;2022-12-18T11:00:23;101148.41;;;6.00;46.04
34177;BME280;20450;49.074;9.158;2022-12-18T11:02:53;101138.34;;;6.30;45.52
34177;BME280;20450;49.074;9.158;2022-12-18T11:05:27;101139.50;;;6.27;45.33
34177;BME280;20450;49.074;9.158;2022-12-18T11:07:56;101135.00;;;6.45;45.22
34177;BME280;20450;49.074;9.158;2022-12-18T11:10:28;101127.25;;;6.42;45.19
34177;BME280;20450;49.074;9.158;2022-12-18T11:13:10;101131.13;;;5.85;46.41
34177;BME280;20450;49.074;9.158;2022-12-18T11:15:40;101128.03;;;4.60;49.58
34177;BME280;20450;49.074;9.158;2022-12-18T11:18:17;101128.38;;;3.58;52.31
34177;BME280;20450;49.074;9.158;2022-12-18T11:20:51;101143.00;;;1.98;58.92
34177;BME280;20450;49.074;9.158;2022-12-18T11:23:24;101126.03;;;2.73;56.86
34177;BME280;20450;49.074;9.158;2022-12-18T11:25:55;101127.34;;;2.47;56.89
34177;BME280;20450;49.074;9.158;2022-12-18T11:28:43;101117.16;;;1.56;59.19
34177;BME280;20450;49.074;9.158;2022-12-18T11:31:22;101114.91;;;1.94;59.42
34177;BME280;20450;49.074;9.158;2022-12-18T11:34:00;101108.53;;;2.28;58.81
34177;BME280;20450;49.074;9.158;2022-12-18T11:36:52;101107.94;;;3.27;55.73
34177;BME280;20450;49.074;9.158;2022-12-18T11:39:23;101108.69;;;3.29;55.35
34177;BME280;20450;49.074;9.158;2022-12-18T11:42:04;101109.44;;;2.38;57.83
34177;BME280;20450;49.074;9.158;2022-12-18T11:44:45;101114.97;;;1.39;61.02
34177;BME280;20450;49.074;9.158;2022-12-18T11:47:28;101115.56;;;1.31;62.07
34177;BME280;20450;49.074;9.158;2022-12-18T11:50:16;101105.59;;;2.31;59.26
34177;BME280;20450;49.074;9.158;2022-12-18T11:52:48;101102.06;;;2.83;57.51
34177;BME280;20450;49.074;9.158;2022-12-18T11:55:31;101112.38;;;2.03;58.63
34177;BME280;20450;49.074;9.158;2022-12-18T11:58:13;101109.13;;;1.67;60.52
34177;BME280;20450;49.074;9.158;2022-12-18T12:01:07;101097.97;;;2.58;58.29
34177;BME280;20450;49.074;9.158;2022-12-18T12:04:07;101089.78;;;2.91;57.36
34177;BME280;20450;49.074;9.158;2022-12-18T12:06:54;101078.69;;;2.55;57.20
34177;BME280;20450;49.074;9.158;2022-12-18T12:09:37;101075.00;;;2.67;57.73
34177;BME280;20450;49.074;9.158;2022-12-18T12:12:27;101072.97;;;2.39;57.92
34177;BME280;20450;49.074;9.158;2022-12-18T12:15:10;101068.25;;;1.99;59.21
34177;BME280;20450;49.074;9.158;2022-12-18T12:17:49;101075.88;;;1.28;61.25
34177;BME280;20450;49.074;9.158;2022-12-18T12:20:33;101074.81;;;1.31;62.49
34177;BME280;20450;49.074;9.158;2022-12-18T12:23:20;101079.84;;;0.90;62.90
34177;BME280;20450;49.074;9.158;2022-12-18T12:26:00;101075.16;;;1.37;61.88
34177;BME280;20450;49.074;9.158;2022-12-18T12:28:44;101076.31;;;1.77;61.61
34177;BME280;20450;49.074;9.158;2022-12-18T12:31:32;101072.59;;;2.12;59.22
34177;BME280;20450;49.074;9.158;2022-12-18T12:34:17;101066.59;;;1.98;60.22
34177;BME280;20450;49.074;9.158;2022-12-18T12:37:00;101069.03;;;2.22;59.37
34177;BME280;20450;49.074;9.158;2022-12-18T12:39:41;101065.81;;;2.08;60.33
34177;BME280;20450;49.074;9.158;2022-12-18T12:42:16;101057.81;;;2.19;60.57
34177;BME280;20450;49.074;9.158;2022-12-18T12:45:00;101067.59;;;2.18;60.11
34177;BME280;20450;49.074;9.158;2022-12-18T12:47:37;101066.56;;;2.62;58.97
34177;BME280;20450;49.074;9.158;2022-12-18T12:50:14;101072.19;;;3.09;57.31
34177;BME280;20450;49.074;9.158;2022-12-18T12:52:47;101080.88;;;3.02;57.12
34177;BME280;20450;49.074;9.158;2022-12-18T12:55:24;101077.66;;;3.08;56.94
34177;BME280;20450;49.074;9.158;2022-12-18T12:58:01;101083.09;;;2.24;58.86
34177;BME280;20450;49.074;9.158;2022-12-18T13:00:41;101089.88;;;1.74;61.14
34177;BME280;20450;49.074;9.158;2022-12-18T13:03:27;101078.66;;;1.49;61.83
34177;BME280;20450;49.074;9.158;2022-12-18T13:06:09;101077.25;;;1.34;62.23
34177;BME280;20450;49.074;9.158;2022-12-18T13:08:58;101078.09;;;1.23;63.30
34177;BME280;20450;49.074;9.158;2022-12-18T13:11:38;101078.16;;;1.55;61.98
34177;BME280;20450;49.074;9.158;2022-12-18T13:14:20;101072.47;;;1.81;61.57
34177;BME280;20450;49.074;9.158;2022-12-18T13:16:51;101068.38;;;1.44;61.94
34177;BME280;20450;49.074;9.158;2022-12-18T13:19:22;101081.91;;;0.97;64.04
34177;BME280;20450;49.074;9.158;2022-12-18T13:21:53;101073.56;;;0.80;64.71